sensor_id;sensor_type;location;lat;lon;timestamp;P1;durP1;ratioP1;P2;durP2;ratioP2
66559;SDS011;53413;49.878;8.142;2023-04-03T00:00:59;6.67;;;3.00;;
66559;SDS011;53413;49.878;8.142;2023-04-03T00:03:25;7.27;;;3.03;;
66559;SDS011;53413;49.878;8.142;2023-04-03T00:05:50;6.27;;;2.90;;
66559;SDS011;53413;49.878;8.142;2023-04-03T00:08:16;6.75;;;3.00;;
66559;SDS011;53413;49.878;8.142;2023-04-03T00:10:41;6.03;;;2.80;;
66559;SDS011;53413;49.878;8.142;2023-04-03T00:13:07;7.28;;;2.92;;
66559;SDS011;53413;49.878;8.142;2023-04-03T00:15:34;6.80;;;3.00;;
66559;SDS011;53413;49.878;8.142;2023-04-03T00:18:00;6.75;;;2.50;;
66559;SDS011;53413;49.878;8.142;2023-04-03T00:20:26;6.93;;;3.10;;
66559;SDS011;53413;49.878;8.142;2023-04-03T00:22:52;7.20;;;2.90;;
66559;SDS011;53413;49.878;8.142;2023-04-03T00:25:18;9.00;;;3.00;;
66559;SDS011;53413;49.878;8.142;2023-04-03T00:27:43;7.03;;;3.00;;
66559;SDS011;53413;49.878;8.142;2023-04-03T00:30:10;6.22;;;3.10;;
66559;SDS011;53413;49.878;8.142;2023-04-03T00:32:37;6.47;;;2.67;;
66559;SDS011;53413;49.878;8.142;2023-04-03T00:35:03;6.38;;;2.97;;
66559;SDS011;53413;49.878;8.142;2023-04-03T00:37:28;6.40;;;2.90;;
66559;SDS011;53413;49.878;8.142;2023-04-03T00:39:54;6.07;;;2.80;;
66559;SDS011;53413;49.878;8.142;2023-04-03T00:42:19;6.13;;;2.80;;
66559;SDS011;53413;49.878;8.142;2023-04-03T00:47:11;6.70;;;2.70;;
66559;SDS011;53413;49.878;8.142;2023-04-03T00:49:38;6.43;;;2.50;;
66559;SDS011;53413;49.878;8.142;2023-04-03T00:52:10;7.18;;;2.80;;
66559;SDS011;53413;49.878;8.142;2023-04-03T00:54:38;7.13;;;2.78;;
66559;SDS011;53413;49.878;8.142;2023-04-03T00:57:07;6.22;;;2.60;;
66559;SDS011;53413;49.878;8.142;2023-04-03T00:59:34;6.30;;;2.67;;
66559;SDS011;53413;49.878;8.142;2023-04-03T01:02:05;6.97;;;2.70;;
66559;SDS011;53413;49.878;8.142;2023-04-03T01:04:34;8.15;;;2.90;;
66559;SDS011;53413;49.878;8.142;2023-04-03T01:07:06;6.77;;;2.63;;
66559;SDS011;53413;49.878;8.142;2023-04-03T01:09:34;6.80;;;2.85;;
66559;SDS011;53413;49.878;8.142;2023-04-03T01:12:16;6.72;;;3.00;;
66559;SDS011;53413;49.878;8.142;2023-04-03T01:14:44;6.53;;;2.75;;
66559;SDS011;53413;49.878;8.142;2023-04-03T01:25:35;5.82;;;2.55;;
66559;SDS011;53413;49.878;8.142;2023-04-03T01:28:04;5.80;;;2.60;;
66559;SDS011;53413;49.878;8.142;2023-04-03T01:30:34;5.80;;;2.40;;
66559;SDS011;53413;49.878;8.142;2023-04-03T01:33:06;7.47;;;2.90;;
66559;SDS011;53413;49.878;8.142;2023-04-03T01:35:31;6.75;;;2.80;;
66559;SDS011;53413;49.878;8.142;2023-04-03T01:37:56;5.93;;;2.40;;
66559;SDS011;53413;49.878;8.142;2023-04-03T01:40:22;6.70;;;2.43;;
66559;SDS011;53413;49.878;8.142;2023-04-03T01:42:47;6.67;;;2.70;;
66559;SDS011;53413;49.878;8.142;2023-04-03T01:45:12;5.53;;;2.20;;
66559;SDS011;53413;49.878;8.142;2023-04-03T01:47:38;7.20;;;2.20;;
66559;SDS011;53413;49.878;8.142;2023-04-03T01:50:03;6.53;;;2.50;;
66559;SDS011;53413;49.878;8.142;2023-04-03T01:52:29;6.07;;;2.40;;
66559;SDS011;53413;49.878;8.142;2023-04-03T01:54:55;5.07;;;2.40;;
66559;SDS011;53413;49.878;8.142;2023-04-03T01:57:20;5.63;;;2.40;;
66559;SDS011;53413;49.878;8.142;2023-04-03T01:59:46;5.88;;;2.40;;
66559;SDS011;53413;49.878;8.142;2023-04-03T02:02:11;7.40;;;2.40;;
66559;SDS011;53413;49.878;8.142;2023-04-03T02:04:37;5.00;;;2.38;;
66559;SDS011;53413;49.878;8.142;2023-04-03T02:07:03;5.43;;;2.27;;
66559;SDS011;53413;49.878;8.142;2023-04-03T02:09:28;6.17;;;2.20;;
66559;SDS011;53413;49.878;8.142;2023-04-03T02:11:53;5.07;;;2.20;;
66559;SDS011;53413;49.878;8.142;2023-04-03T02:14:19;6.32;;;2.30;;
66559;SDS011;53413;49.878;8.142;2023-04-03T02:16:45;6.30;;;2.23;;
66559;SDS011;53413;49.878;8.142;2023-04-03T02:19:10;6.40;;;2.30;;
66559;SDS011;53413;49.878;8.142;2023-04-03T02:21:35;5.72;;;2.30;;
66559;SDS011;53413;49.878;8.142;2023-04-03T02:24:01;6.77;;;2.10;;
66559;SDS011;53413;49.878;8.142;2023-04-03T02:26:26;6.10;;;2.10;;
66559;SDS011;53413;49.878;8.142;2023-04-03T02:28:51;5.20;;;2.20;;
66559;SDS011;53413;49.878;8.142;2023-04-03T02:31:17;6.30;;;2.17;;
66559;SDS011;53413;49.878;8.142;2023-04-03T02:33:42;5.03;;;2.03;;
66559;SDS011;53413;49.878;8.142;2023-04-03T02:36:08;5.32;;;2.20;;
66559;SDS011;53413;49.878;8.142;2023-04-03T02:38:34;4.63;;;1.90;;
66559;SDS011;53413;49.878;8.142;2023-04-03T02:41:04;6.20;;;2.00;;
66559;SDS011;53413;49.878;8.142;2023-04-03T02:43:31;4.70;;;1.90;;
66559;SDS011;53413;49.878;8.142;2023-04-03T02:45:57;5.10;;;1.90;;
66559;SDS011;53413;49.878;8.142;2023-04-03T02:48:22;5.03;;;2.10;;
66559;SDS011;53413;49.878;8.142;2023-04-03T02:50:48;5.80;;;2.17;;
66559;SDS011;53413;49.878;8.142;2023-04-03T02:53:14;5.00;;;2.20;;
66559;SDS011;53413;49.878;8.142;2023-04-03T02:55:40;5.57;;;2.03;;
66559;SDS011;53413;49.878;8.142;2023-04-03T02:58:05;4.90;;;1.80;;
66559;SDS011;53413;49.878;8.142;2023-04-03T03:00:31;7.47;;;2.60;;
66559;SDS011;53413;49.878;8.142;2023-04-03T03:02:56;6.07;;;2.47;;
66559;SDS011;53413;49.878;8.142;2023-04-03T03:05:21;6.40;;;2.40;;
66559;SDS011;53413;49.878;8.142;2023-04-03T03:07:47;7.17;;;2.47;;
66559;SDS011;53413;49.878;8.142;2023-04-03T03:10:12;7.95;;;2.75;;
66559;SDS011;53413;49.878;8.142;2023-04-03T03:12:38;7.60;;;2.43;;
66559;SDS011;53413;49.878;8.142;2023-04-03T03:15:03;5.37;;;2.00;;
66559;SDS011;53413;49.878;8.142;2023-04-03T03:17:29;5.22;;;2.30;;
66559;SDS011;53413;49.878;8.142;2023-04-03T03:19:55;6.07;;;2.30;;
66559;SDS011;53413;49.878;8.142;2023-04-03T03:22:20;5.23;;;1.90;;
66559;SDS011;53413;49.878;8.142;2023-04-03T03:24:45;6.10;;;1.93;;
66559;SDS011;53413;49.878;8.142;2023-04-03T03:27:10;5.23;;;1.90;;
66559;SDS011;53413;49.878;8.142;2023-04-03T03:29:37;6.60;;;1.92;;
66559;SDS011;53413;49.878;8.142;2023-04-03T03:32:02;5.70;;;2.07;;
66559;SDS011;53413;49.878;8.142;2023-04-03T03:34:28;6.05;;;2.20;;
66559;SDS011;53413;49.878;8.142;2023-04-03T03:36:53;5.63;;;2.10;;
66559;SDS011;53413;49.878;8.142;2023-04-03T03:39:18;5.47;;;1.90;;
66559;SDS011;53413;49.878;8.142;2023-04-03T03:41:43;5.23;;;2.20;;
66559;SDS011;53413;49.878;8.142;2023-04-03T03:44:09;6.10;;;2.20;;
66559;SDS011;53413;49.878;8.142;2023-04-03T03:46:35;6.70;;;2.13;;
66559;SDS011;53413;49.878;8.142;2023-04-03T03:49:00;6.43;;;1.80;;
66559;SDS011;53413;49.878;8.142;2023-04-03T03:51:25;6.43;;;2.00;;
66559;SDS011;53413;49.878;8.142;2023-04-03T03:53:50;7.50;;;2.10;;
66559;SDS011;53413;49.878;8.142;2023-04-03T03:56:16;5.30;;;2.00;;
66559;SDS011;53413;49.878;8.142;2023-04-03T03:58:41;4.90;;;2.10;;
66559;SDS011;53413;49.878;8.142;2023-04-03T04:01:06;5.40;;;2.20;;
66559;SDS011;53413;49.878;8.142;2023-04-03T04:03:32;6.40;;;2.40;;
66559;SDS011;53413;49.878;8.142;2023-04-03T04:05:58;6.38;;;2.33;;
66559;SDS011;53413;49.878;8.142;2023-04-03T04:08:23;7.33;;;2.30;;
66559;SDS011;53413;49.878;8.142;2023-04-03T04:10:49;6.97;;;2.08;;
66559;SDS011;53413;49.878;8.142;2023-04-03T04:13:15;6.40;;;2.10;;
66559;SDS011;53413;49.878;8.142;2023-04-03T04:15:40;7.43;;;2.17;;
66559;SDS011;53413;49.878;8.142;2023-04-03T04:18:06;6.53;;;2.03;;
66559;SDS011;53413;49.878;8.142;2023-04-03T04:20:31;9.32;;;1.75;;
66559;SDS011;53413;49.878;8.142;2023-04-03T04:22:56;6.03;;;1.87;;
66559;SDS011;53413;49.878;8.142;2023-04-03T04:25:22;7.73;;;2.07;;
66559;SDS011;53413;49.878;8.142;2023-04-03T04:27:47;6.07;;;1.80;;
66559;SDS011;53413;49.878;8.142;2023-04-03T04:30:12;5.03;;;1.67;;
66559;SDS011;53413;49.878;8.142;2023-04-03T04:32:38;5.50;;;1.70;;
66559;SDS011;53413;49.878;8.142;2023-04-03T04:35:03;4.70;;;1.40;;
66559;SDS011;53413;49.878;8.142;2023-04-03T04:37:29;4.80;;;1.58;;
66559;SDS011;53413;49.878;8.142;2023-04-03T04:39:55;6.32;;;1.58;;
66559;SDS011;53413;49.878;8.142;2023-04-03T04:42:20;5.70;;;1.53;;
66559;SDS011;53413;49.878;8.142;2023-04-03T04:44:45;4.63;;;1.37;;
66559;SDS011;53413;49.878;8.142;2023-04-03T04:47:11;5.03;;;1.03;;
66559;SDS011;53413;49.878;8.142;2023-04-03T04:49:36;6.00;;;1.30;;
66559;SDS011;53413;49.878;8.142;2023-04-03T04:52:01;7.00;;;1.50;;
66559;SDS011;53413;49.878;8.142;2023-04-03T04:54:27;4.90;;;1.30;;
66559;SDS011;53413;49.878;8.142;2023-04-03T04:56:52;5.53;;;1.30;;
66559;SDS011;53413;49.878;8.142;2023-04-03T04:59:17;6.50;;;1.20;;
66559;SDS011;53413;49.878;8.142;2023-04-03T05:01:43;5.17;;;1.33;;
66559;SDS011;53413;49.878;8.142;2023-04-03T05:04:08;4.00;;;1.03;;
66559;SDS011;53413;49.878;8.142;2023-04-03T05:06:34;5.95;;;1.25;;
66559;SDS011;53413;49.878;8.142;2023-04-03T05:09:00;5.53;;;1.20;;
66559;SDS011;53413;49.878;8.142;2023-04-03T05:11:26;4.68;;;1.20;;
66559;SDS011;53413;49.878;8.142;2023-04-03T05:13:51;7.70;;;1.50;;
66559;SDS011;53413;49.878;8.142;2023-04-03T05:16:17;6.18;;;1.40;;
66559;SDS011;53413;49.878;8.142;2023-04-03T05:18:42;7.13;;;1.30;;
66559;SDS011;53413;49.878;8.142;2023-04-03T05:21:07;5.23;;;1.20;;
66559;SDS011;53413;49.878;8.142;2023-04-03T05:23:33;4.00;;;1.20;;
66559;SDS011;53413;49.878;8.142;2023-04-03T05:25:58;4.40;;;1.30;;
66559;SDS011;53413;49.878;8.142;2023-04-03T05:28:23;7.40;;;1.33;;
66559;SDS011;53413;49.878;8.142;2023-04-03T05:30:52;5.73;;;1.23;;
66559;SDS011;53413;49.878;8.142;2023-04-03T05:33:19;4.93;;;1.13;;
66559;SDS011;53413;49.878;8.142;2023-04-03T05:35:45;4.93;;;1.27;;
66559;SDS011;53413;49.878;8.142;2023-04-03T05:38:11;5.50;;;1.30;;
66559;SDS011;53413;49.878;8.142;2023-04-03T05:40:36;5.63;;;1.30;;
66559;SDS011;53413;49.878;8.142;2023-04-03T05:43:02;5.55;;;1.67;;
66559;SDS011;53413;49.878;8.142;2023-04-03T05:45:28;6.43;;;1.30;;
66559;SDS011;53413;49.878;8.142;2023-04-03T05:47:53;5.57;;;1.52;;
66559;SDS011;53413;49.878;8.142;2023-04-03T05:50:19;6.43;;;1.40;;
66559;SDS011;53413;49.878;8.142;2023-04-03T05:52:45;6.17;;;1.47;;
66559;SDS011;53413;49.878;8.142;2023-04-03T05:55:13;7.15;;;1.50;;
66559;SDS011;53413;49.878;8.142;2023-04-03T05:57:39;5.30;;;1.50;;
66559;SDS011;53413;49.878;8.142;2023-04-03T06:00:05;4.67;;;1.50;;
66559;SDS011;53413;49.878;8.142;2023-04-03T06:02:32;5.45;;;1.40;;
66559;SDS011;53413;49.878;8.142;2023-04-03T06:04:57;5.97;;;1.53;;
66559;SDS011;53413;49.878;8.142;2023-04-03T06:07:24;4.93;;;1.60;;
66559;SDS011;53413;49.878;8.142;2023-04-03T06:09:53;6.82;;;1.45;;
66559;SDS011;53413;49.878;8.142;2023-04-03T06:12:20;4.88;;;1.60;;
66559;SDS011;53413;49.878;8.142;2023-04-03T06:14:47;6.80;;;1.67;;
66559;SDS011;53413;49.878;8.142;2023-04-03T06:17:13;4.85;;;1.38;;
66559;SDS011;53413;49.878;8.142;2023-04-03T06:19:39;6.72;;;1.70;;
66559;SDS011;53413;49.878;8.142;2023-04-03T06:22:04;5.78;;;1.80;;
66559;SDS011;53413;49.878;8.142;2023-04-03T06:24:30;5.57;;;1.50;;
66559;SDS011;53413;49.878;8.142;2023-04-03T06:26:56;5.22;;;1.58;;
66559;SDS011;53413;49.878;8.142;2023-04-03T06:29:22;5.68;;;1.60;;
66559;SDS011;53413;49.878;8.142;2023-04-03T06:31:49;6.93;;;1.70;;
66559;SDS011;53413;49.878;8.142;2023-04-03T06:34:15;5.50;;;1.58;;
66559;SDS011;53413;49.878;8.142;2023-04-03T06:36:41;6.57;;;1.70;;
66559;SDS011;53413;49.878;8.142;2023-04-03T06:39:08;8.52;;;2.47;;
66559;SDS011;53413;49.878;8.142;2023-04-03T06:41:38;6.93;;;2.03;;
66559;SDS011;53413;49.878;8.142;2023-04-03T06:44:03;5.50;;;1.40;;
66559;SDS011;53413;49.878;8.142;2023-04-03T06:46:28;6.50;;;1.90;;
66559;SDS011;53413;49.878;8.142;2023-04-03T06:48:54;5.97;;;1.80;;
66559;SDS011;53413;49.878;8.142;2023-04-03T06:53:50;4.57;;;1.70;;
66559;SDS011;53413;49.878;8.142;2023-04-03T06:56:17;6.90;;;1.95;;
66559;SDS011;53413;49.878;8.142;2023-04-03T06:58:43;8.07;;;1.88;;
66559;SDS011;53413;49.878;8.142;2023-04-03T07:01:09;5.53;;;2.25;;
66559;SDS011;53413;49.878;8.142;2023-04-03T07:03:36;6.37;;;2.50;;
66559;SDS011;53413;49.878;8.142;2023-04-03T07:06:02;5.65;;;2.00;;
66559;SDS011;53413;49.878;8.142;2023-04-03T07:08:28;6.40;;;2.67;;
66559;SDS011;53413;49.878;8.142;2023-04-03T07:10:55;6.63;;;2.40;;
66559;SDS011;53413;49.878;8.142;2023-04-03T07:13:21;4.83;;;2.00;;
66559;SDS011;53413;49.878;8.142;2023-04-03T07:15:46;6.80;;;2.60;;
66559;SDS011;53413;49.878;8.142;2023-04-03T07:18:11;7.43;;;2.30;;
66559;SDS011;53413;49.878;8.142;2023-04-03T07:20:38;7.23;;;2.40;;
66559;SDS011;53413;49.878;8.142;2023-04-03T07:23:03;5.88;;;2.30;;
66559;SDS011;53413;49.878;8.142;2023-04-03T07:25:28;5.97;;;2.73;;
66559;SDS011;53413;49.878;8.142;2023-04-03T07:27:55;5.72;;;2.20;;
66559;SDS011;53413;49.878;8.142;2023-04-03T07:30:21;4.67;;;2.30;;
66559;SDS011;53413;49.878;8.142;2023-04-03T07:32:47;6.78;;;2.60;;
66559;SDS011;53413;49.878;8.142;2023-04-03T07:35:12;5.30;;;2.40;;
66559;SDS011;53413;49.878;8.142;2023-04-03T07:37:37;5.13;;;2.50;;
66559;SDS011;53413;49.878;8.142;2023-04-03T07:40:03;6.67;;;2.33;;
66559;SDS011;53413;49.878;8.142;2023-04-03T07:42:29;5.03;;;2.53;;
66559;SDS011;53413;49.878;8.142;2023-04-03T07:44:54;4.53;;;2.33;;
66559;SDS011;53413;49.878;8.142;2023-04-03T07:47:20;5.60;;;2.00;;
66559;SDS011;53413;49.878;8.142;2023-04-03T07:49:46;5.63;;;2.50;;
66559;SDS011;53413;49.878;8.142;2023-04-03T07:52:12;4.32;;;2.00;;
66559;SDS011;53413;49.878;8.142;2023-04-03T07:54:38;5.95;;;2.42;;
66559;SDS011;53413;49.878;8.142;2023-04-03T07:57:03;5.57;;;2.03;;
